Atchison, KS (66002)

11:57 PM CST on February 06, 2016 (GMT -0600)
Shannon Township | | Change Station
CLOSE
Current Station
Personal Weather Station
Location: Atchison, KS
Elevation: 942 ft
Nearby Weather Stations

Elev 942 ft 39.56 °N, 95.16 °W | Updated 7 minutes ago

Partly Cloudy
Partly Cloudy
40.8 °F
Feels Like 35 °F
N
9.0
Wind Variable Wind from SW
Gusts 11.0 mph

Today
High -- | Low -- °F
--% Chance of Precip.
Yesterday
High -- | Low -- °F
Precip. -- in
Pressure 30.06 in
Visibility 10.0 miles
Clouds Clear
Windchill 35 °F
Dew Point 28 °F
Humidity 59%
Rainfall 0.00 in
Snow Depth Not available.
7:23 AM 5:46 PM
Waning Crescent, 2% visible
METAR KSTJ 070553Z AUTO 20012KT 10SM CLR 03/M03 A3004 RMK AO2 SLP177 T00331028 10056 20017 400891061 58014
Pressure 30.06 in
Visibility 10.0 miles
Clouds Clear
Windchill 35 °F
Dew Point 28 °F
Humidity 59%
Rainfall 0.00 in
Snow Depth Not available.
7:23 AM 5:46 PM
Waning Crescent, 2% visible
METAR KSTJ 070553Z AUTO 20012KT 10SM CLR 03/M03 A3004 RMK AO2 SLP177 T00331028 10056 20017 400891061 58014

10-Day Weather Forecast

Almanac

Astronomy

Feb. 06, 2016 Rise Set
Actual Time
Civil Twilight
Nautical Twilight
Astronomical Twilight
Moon
Length of Visible Light
Length of Day
Tomorrow will be .
, % of the Moon is Illuminated

Today's Extremes

State Highs State Lows

Community

WunderPhotos

Upload Photos

1,891,167 photos uploaded!

WunderBlog® & News

Nearby

Air Quality

  Air Quality AQ Index Pollutant
Not available.

Snow Depth

Station Depth Elevation

Earthquake Activity

City Distance Mag. Time & Date
Minimum magnitude displayed is 2.5.

Coastal Water Temperatures

Place Temperature

Stations

Nearby Weather Stations

Station Location Temp. Windchill Dew Point Humidity Wind Precip. Elev Updated Type
                   

Watches & Warnings

There are currently no watches in effect.